Davao, Philippines
Current Conditions -  °F | °C
As of 10:00 PM on Wednesday 22 Oct 2014 (Local Time) from RPMD Reporting Station
Thunderstorm Thunderstorm  
Wind Chill: 73°   Ceiling: 9000
Heat Index: 73°   Visibility: 3mi
Dew Point: 73°   Wind: 5mph
Humidity: 100%   Direction: 90°E
Pressure: 29.88"   Gusts: NA
Location:  7.11°N, 125.63°E
Report Text: RPMD 221400Z 09004KT 5000 -TSRA SCT015CB BKN090 OVC290 23/23 Q1012 A2990 CB ALQDS
Loading
Personal Weather Stations






























Interactive Weather Map
Tropical Storm Tracking
New forecast layout! Learn more

10-Day Weather Forecast

Advertisements
Track Severe Weather on mobile